x

Nantucket Sound (44020) Wave Buoy

3:50pm - Sun 2nd Aug 2015 All times are EDT. -4 hours from GMT.

  • Sig Wave height 1.0ft
  • Swell Direction
  • Peak Period 5s
  • Average Period 3s
  • Wind
    13mph, 16mph gusts
  • Sea Temp 75°f
  • Air Temp 75°f
  • Sea Pressure 1012.3mb
  • Nantucket Sound
  • Nantucket Sound

More Historic Weather Station data

Upgrade to MSW Pro to gain access to the past 30 days of data for over 8000 Wavebouys and Weather Stations around the globe.

Join Pro

Comparision Forecast

View Surf forecast
   
Sun 08/02 3:50pm 1ft 5s 3s 13 16 mph 1012.3mb 75f 75f
2:50pm 1ft 6s 4s 9 11 mph 1012.4mb 76f 74f
1:50pm 1.3ft 8s 4s 9 11 mph 1012.7mb 75f 74f
12:50pm 1ft 6s 4s 9 11 mph 1013mb 75f 73f
11:50am 1ft 3s 3s 9
mph
1012.9mb 75f 75f
10:50am 1.3ft 5s 4s 9
mph
1012.7mb 75f 75f
9:50am 1ft 2s 3s 9 11 mph 1012.5mb 74f 74f
8:50am 1ft 2s 3s 11 13 mph 1012.3mb 73f 74f
7:50am 1.3ft 3s 3s 11 13 mph 1011.8mb 72f 75f
6:50am 1.3ft 3s 3s 11 13 mph 1011.2mb 71f 75f
4:50am 1ft 3s 3s 11 16 mph 1009.9mb 72f 75f
3:50am 0.7ft  -  3s 11 13 mph 1009.5mb 73f 75f
2:50am 1ft 8s 4s 11 13 mph 1009.4mb 75f 75f
1:50am 1ft 8s 4s 9
mph
1009.5mb 75f 74f
12:50am 1.3ft 8s 4s 11 13 mph 1009.3mb 75f 74f
Sat 08/01 11:50pm 1.3ft 3s 3s 16 18 mph 1009.3mb 75f 74f
10:50pm 1.3ft 3s 3s 18 20 mph 1009.2mb 75f 74f
9:50pm 1.3ft 3s 3s 16 18 mph 1009.1mb 75f 75f
8:50pm 1.6ft 3s 3s 16 18 mph 1008.7mb 75f 74f
7:50pm 2ft 3s 3s 18 22 mph 1007.8mb 74f 75f
6:50pm 2ft 3s 3s 20 25 mph 1007mb 73f 75f
5:50pm 1.6ft 3s 3s 20 25 mph 1007mb 73f 75f
4:50pm 2ft 3s 3s 20 25 mph 1006.8mb 73f 75f
3:50pm 1.6ft 3s 3s 18 22 mph 1007.1mb 74f 75f
2:50pm 1.6ft 3s 3s 20 25 mph 1007.3mb 75f 75f
1:50pm 1.6ft 3s 3s 16 20 mph 1007.8mb 75f 75f
12:50pm 1.6ft 3s 3s 18 22 mph 1008.1mb 75f 75f
11:50am 1.3ft 3s 3s 18 22 mph 1008.1mb 75f 74f
10:50am 1ft 5s 3s 18 20 mph 1008.2mb 75f 75f
9:50am 0.7ft  -  4s 16 18 mph 1008.2mb 75f 74f
8:50am 0.7ft  -  3s 11
mph
1008.3mb 74f 74f
7:50am 0.7ft  -  4s 11 13 mph 1008.5mb 73f 74f
6:50am 0.7ft  -  4s 11
mph
1008.1mb 72f 73f
5:50am 0.7ft  -  4s 4
mph
1007.9mb 71f 73f
4:50am 0.7ft  -  3s 7 9 mph 1007.9mb 72f 73f
3:50am 0.7ft  -  3s 9 11 mph 1008.2mb 72f 73f
2:50am 0.7ft  -  4s 9 11 mph 1008.6mb 74f 74f
1:50am 1ft 7s 4s 9 11 mph 1008.6mb 75f 73f
12:50am 1ft 8s 4s 9 11 mph 1009.2mb 74f 74f
Fri 07/31 11:50pm 1.3ft 7s 4s 11 13 mph 1009.6mb 74f 73f
10:50pm 1ft 7s 3s 11 13 mph 1009.2mb 74f 73f
9:50pm 1.3ft 6s 3s 13 16 mph 1009mb 75f 74f
8:50pm 1.3ft 4s 3s 16
mph
1008.5mb 75f 74f
7:50pm 1.3ft 6s 3s 16 20 mph 1008mb 75f 75f
6:50pm 1.6ft 3s 3s 16 18 mph 1007.8mb 74f 75f
5:50pm 1.3ft 3s 3s 16 18 mph 1007.8mb 73f 76f
4:50pm 1.3ft 3s 3s 18 20 mph 1007.9mb 73f 76f
3:50pm 1.3ft 3s 3s 18 20 mph 1007.8mb 74f 75f
2:50pm 1.3ft 3s 3s 18 20 mph 1008.1mb 75f 76f
1:50pm 1ft 7s 4s 13 16 mph 1008.6mb 75f 74f
12:50pm 1.3ft 6s 4s 11 13 mph 1009mb 75f 74f
11:50am 1ft 8s 4s 11 13 mph 1009.2mb 75f 74f
10:50am 1ft 6s 4s 4 7 mph 1009.5mb 74f 75f
9:50am 0.7ft  -  3s 9 11 mph 1009.3mb 74f 76f
8:50am 0.7ft  -  4s 9
mph
1009.4mb 74f 74f
7:50am 0.7ft  -  3s 9
mph
1009.4mb 74f 74f
6:50am 1ft 3s 3s 9
mph
1009.2mb 73f 75f
5:50am 1ft 3s 3s 9
mph
1008.6mb 72f 74f
4:50am 1ft 4s 3s 9 11 mph 1008.1mb 72f 74f
3:50am 1ft 3s 3s 7 9 mph 1008.1mb 72f 74f
2:50am 1ft 3s 3s 13 16 mph 1008.5mb 73f 74f
1:50am 1ft 3s 3s 13 16 mph 1008.8mb 74f 74f
12:50am 1.3ft 3s 3s 16 20 mph 1009.2mb 74f 74f
Thu 07/30 11:50pm 1.3ft 9s 4s 13 16 mph 1009.5mb 74f 74f
10:50pm 1.3ft 9s 4s 11 16 mph 1009.9mb 74f 74f
9:50pm 1.3ft 3s 3s 13 16 mph 1010.3mb 74f 74f
8:50pm 1.3ft 3s 3s 16 18 mph 1010.2mb 74f 74f
7:50pm 1.3ft 6s 3s 16 18 mph 1010.3mb 74f 74f
6:50pm 2ft 3s 3s 18 20 mph 1010.2mb 74f 75f
5:50pm 2ft 3s 3s 20 25 mph 1010.1mb 73f 75f
4:50pm 2ft 4s 3s 20 25 mph 1010.1mb 73f 75f
3:50pm 1.6ft 4s 3s 20 22 mph 1010.5mb 73f 75f
2:50pm 2ft 3s 3s 18 22 mph 1011.3mb 73f 75f
1:50pm 1.6ft 3s 3s 20 25 mph 1011.7mb 74f 75f
12:50pm 2ft 3s 3s 18 22 mph 1011.9mb 74f 74f
11:50am 1.3ft 3s 3s 18 22 mph 1012.2mb 74f 74f
10:50am 1.3ft 6s 3s 13 18 mph 1012.5mb 74f 73f
9:50am 1.3ft 2s 3s 18 20 mph 1012.5mb 74f 73f
8:50am 1.3ft 3s 3s 16 20 mph 1012.8mb 74f 73f
7:50am 1ft 2s 3s 16 18 mph 1012.7mb 74f 73f
6:50am 1.3ft 3s 3s 16 18 mph 1012.6mb 73f 73f
5:50am 1.3ft 3s 3s 13 18 mph 1012.7mb 73f 74f
4:50am 1.3ft 3s 3s 13 18 mph 1012.7mb 71f 74f
3:50am 1.3ft 3s 3s 11 13 mph 1012.6mb 71f 73f
2:50am 1.3ft 3s 3s 16 18 mph 1012.7mb 72f 74f
1:50am 1.3ft 3s 4s 16 18 mph 1012.6mb 73f 74f
12:50am 1.3ft 3s 4s 13 18 mph 1012.8mb 74f 74f
Wed 07/29 11:50pm 1.3ft 8s 4s 13 16 mph 1013mb 74f 74f
10:50pm 1.3ft 8s 4s 13 18 mph 1012.9mb 74f 74f
9:50pm 1.3ft 8s 4s 13 16 mph 1013.1mb 74f 73f